sensor_id;sensor_type;location;lat;lon;timestamp;temperature;humidity
41944;DHT22;27636;52.610;13.244;2024-03-17T00:00:27;3.10;99.90
41944;DHT22;27636;52.610;13.244;2024-03-17T00:05:30;3.00;99.90
41944;DHT22;27636;52.610;13.244;2024-03-17T00:10:33;3.00;99.90
41944;DHT22;27636;52.610;13.244;2024-03-17T00:15:37;3.00;99.90
41944;DHT22;27636;52.610;13.244;2024-03-17T00:20:40;3.00;99.90
41944;DHT22;27636;52.610;13.244;2024-03-17T00:25:43;2.90;99.90
41944;DHT22;27636;52.610;13.244;2024-03-17T00:30:48;2.80;99.90
41944;DHT22;27636;52.610;13.244;2024-03-17T00:35:50;2.90;99.90
41944;DHT22;27636;52.610;13.244;2024-03-17T00:40:53;2.90;99.90
41944;DHT22;27636;52.610;13.244;2024-03-17T00:45:57;3.00;99.90
41944;DHT22;27636;52.610;13.244;2024-03-17T00:51:01;3.10;99.90
41944;DHT22;27636;52.610;13.244;2024-03-17T00:56:05;2.90;99.90
41944;DHT22;27636;52.610;13.244;2024-03-17T01:01:10;3.10;99.90
41944;DHT22;27636;52.610;13.244;2024-03-17T01:06:13;3.20;99.90
41944;DHT22;27636;52.610;13.244;2024-03-17T01:11:16;3.00;99.90
41944;DHT22;27636;52.610;13.244;2024-03-17T01:16:22;3.10;99.90
41944;DHT22;27636;52.610;13.244;2024-03-17T01:21:25;3.00;99.90
41944;DHT22;27636;52.610;13.244;2024-03-17T01:26:28;2.90;99.90
41944;DHT22;27636;52.610;13.244;2024-03-17T01:31:32;2.90;99.90
41944;DHT22;27636;52.610;13.244;2024-03-17T01:36:35;2.90;99.90
41944;DHT22;27636;52.610;13.244;2024-03-17T01:41:38;2.80;99.90
41944;DHT22;27636;52.610;13.244;2024-03-17T01:46:42;2.80;99.90
41944;DHT22;27636;52.610;13.244;2024-03-17T01:51:45;2.70;99.90
41944;DHT22;27636;52.610;13.244;2024-03-17T01:56:49;2.80;99.90
41944;DHT22;27636;52.610;13.244;2024-03-17T02:01:54;2.90;99.90
41944;DHT22;27636;52.610;13.244;2024-03-17T02:06:57;2.90;99.90
41944;DHT22;27636;52.610;13.244;2024-03-17T02:11:59;2.80;99.90
41944;DHT22;27636;52.610;13.244;2024-03-17T02:17:04;2.80;99.90
41944;DHT22;27636;52.610;13.244;2024-03-17T02:22:13;2.60;99.90
41944;DHT22;27636;52.610;13.244;2024-03-17T02:27:17;2.70;99.90
41944;DHT22;27636;52.610;13.244;2024-03-17T02:32:20;2.80;99.90
41944;DHT22;27636;52.610;13.244;2024-03-17T02:37:26;2.80;99.90
41944;DHT22;27636;52.610;13.244;2024-03-17T02:42:29;2.60;99.90
41944;DHT22;27636;52.610;13.244;2024-03-17T02:47:32;2.40;99.90
41944;DHT22;27636;52.610;13.244;2024-03-17T02:52:36;2.40;99.90
41944;DHT22;27636;52.610;13.244;2024-03-17T02:57:38;2.50;99.90
41944;DHT22;27636;52.610;13.244;2024-03-17T03:02:41;2.30;99.90
41944;DHT22;27636;52.610;13.244;2024-03-17T03:07:46;2.20;99.90
41944;DHT22;27636;52.610;13.244;2024-03-17T03:12:48;2.00;99.90
41944;DHT22;27636;52.610;13.244;2024-03-17T03:17:51;2.20;99.90
41944;DHT22;27636;52.610;13.244;2024-03-17T03:22:56;1.90;99.90
41944;DHT22;27636;52.610;13.244;2024-03-17T03:27:59;1.80;99.90
41944;DHT22;27636;52.610;13.244;2024-03-17T03:33:03;1.60;99.90
41944;DHT22;27636;52.610;13.244;2024-03-17T03:38:08;1.70;99.90
41944;DHT22;27636;52.610;13.244;2024-03-17T03:43:11;1.70;99.90
41944;DHT22;27636;52.610;13.244;2024-03-17T03:48:16;1.70;99.90
41944;DHT22;27636;52.610;13.244;2024-03-17T03:53:20;1.50;99.90
41944;DHT22;27636;52.610;13.244;2024-03-17T03:58:23;1.40;99.90
41944;DHT22;27636;52.610;13.244;2024-03-17T04:03:26;1.60;99.90
41944;DHT22;27636;52.610;13.244;2024-03-17T04:08:32;1.60;99.90
41944;DHT22;27636;52.610;13.244;2024-03-17T04:13:35;1.70;99.90
41944;DHT22;27636;52.610;13.244;2024-03-17T04:18:38;2.00;99.90
41944;DHT22;27636;52.610;13.244;2024-03-17T04:23:44;2.30;99.90
41944;DHT22;27636;52.610;13.244;2024-03-17T04:28:47;2.10;99.90
41944;DHT22;27636;52.610;13.244;2024-03-17T04:33:49;2.10;99.90
41944;DHT22;27636;52.610;13.244;2024-03-17T04:38:54;2.10;99.90
41944;DHT22;27636;52.610;13.244;2024-03-17T04:43:57;1.70;99.90
41944;DHT22;27636;52.610;13.244;2024-03-17T04:49:01;1.60;99.90
41944;DHT22;27636;52.610;13.244;2024-03-17T04:54:07;1.70;99.90
41944;DHT22;27636;52.610;13.244;2024-03-17T04:59:10;1.40;99.90
41944;DHT22;27636;52.610;13.244;2024-03-17T05:04:13;1.20;99.90
41944;DHT22;27636;52.610;13.244;2024-03-17T05:09:17;1.00;99.90
41944;DHT22;27636;52.610;13.244;2024-03-17T05:14:21;1.10;99.90
41944;DHT22;27636;52.610;13.244;2024-03-17T05:19:23;1.20;99.90
41944;DHT22;27636;52.610;13.244;2024-03-17T05:24:27;1.10;99.90
41944;DHT22;27636;52.610;13.244;2024-03-17T05:29:30;1.00;99.90
41944;DHT22;27636;52.610;13.244;2024-03-17T05:34:33;1.00;99.90
41944;DHT22;27636;52.610;13.244;2024-03-17T05:39:38;1.00;99.90
41944;DHT22;27636;52.610;13.244;2024-03-17T05:44:40;1.10;99.90
41944;DHT22;27636;52.610;13.244;2024-03-17T05:49:53;1.20;99.90
41944;DHT22;27636;52.610;13.244;2024-03-17T05:54:57;1.30;99.90
41944;DHT22;27636;52.610;13.244;2024-03-17T06:00:00;1.40;99.90
41944;DHT22;27636;52.610;13.244;2024-03-17T06:05:03;1.50;99.90
41944;DHT22;27636;52.610;13.244;2024-03-17T06:10:09;1.80;99.90
41944;DHT22;27636;52.610;13.244;2024-03-17T06:15:11;2.20;99.90
41944;DHT22;27636;52.610;13.244;2024-03-17T06:20:14;3.10;99.90
41944;DHT22;27636;52.610;13.244;2024-03-17T06:25:18;3.90;99.90
41944;DHT22;27636;52.610;13.244;2024-03-17T06:30:21;5.10;99.90
41944;DHT22;27636;52.610;13.244;2024-03-17T06:35:24;5.00;99.90
41944;DHT22;27636;52.610;13.244;2024-03-17T06:40:30;5.30;99.90
41944;DHT22;27636;52.610;13.244;2024-03-17T06:45:34;5.40;99.90
41944;DHT22;27636;52.610;13.244;2024-03-17T06:50:38;5.50;99.90
41944;DHT22;27636;52.610;13.244;2024-03-17T06:55:44;5.40;99.90
41944;DHT22;27636;52.610;13.244;2024-03-17T07:00:54;5.50;99.90
41944;DHT22;27636;52.610;13.244;2024-03-17T07:05:58;6.00;99.90
41944;DHT22;27636;52.610;13.244;2024-03-17T07:11:04;6.30;99.90
41944;DHT22;27636;52.610;13.244;2024-03-17T07:16:08;6.60;99.90
41944;DHT22;27636;52.610;13.244;2024-03-17T07:21:11;6.80;99.90
41944;DHT22;27636;52.610;13.244;2024-03-17T07:26:15;6.90;99.90
41944;DHT22;27636;52.610;13.244;2024-03-17T07:31:18;7.60;99.90
41944;DHT22;27636;52.610;13.244;2024-03-17T07:36:21;7.90;99.90
41944;DHT22;27636;52.610;13.244;2024-03-17T07:41:25;8.70;99.90
41944;DHT22;27636;52.610;13.244;2024-03-17T07:46:29;9.20;99.90
41944;DHT22;27636;52.610;13.244;2024-03-17T07:51:32;9.70;99.90
41944;DHT22;27636;52.610;13.244;2024-03-17T07:56:38;9.70;99.90
41944;DHT22;27636;52.610;13.244;2024-03-17T08:01:41;9.40;99.90
41944;DHT22;27636;52.610;13.244;2024-03-17T08:06:44;9.90;99.90
41944;DHT22;27636;52.610;13.244;2024-03-17T08:11:48;10.40;99.90
41944;DHT22;27636;52.610;13.244;2024-03-17T08:16:53;10.50;98.90
41944;DHT22;27636;52.610;13.244;2024-03-17T08:21:56;10.40;98.50
41944;DHT22;27636;52.610;13.244;2024-03-17T08:27:00;10.30;98.50
41944;DHT22;27636;52.610;13.244;2024-03-17T08:32:03;10.80;96.50
41944;DHT22;27636;52.610;13.244;2024-03-17T08:37:05;12.30;93.30
41944;DHT22;27636;52.610;13.244;2024-03-17T08:42:10;13.30;91.30
41944;DHT22;27636;52.610;13.244;2024-03-17T08:47:12;12.90;88.40
41944;DHT22;27636;52.610;13.244;2024-03-17T08:52:15;11.30;92.20
41944;DHT22;27636;52.610;13.244;2024-03-17T08:57:19;10.90;92.80
41944;DHT22;27636;52.610;13.244;2024-03-17T09:02:22;10.20;93.10
41944;DHT22;27636;52.610;13.244;2024-03-17T09:07:24;10.70;92.80
41944;DHT22;27636;52.610;13.244;2024-03-17T09:12:31;10.10;92.70
41944;DHT22;27636;52.610;13.244;2024-03-17T09:17:38;9.70;93.80
41944;DHT22;27636;52.610;13.244;2024-03-17T09:22:41;9.60;94.30
41944;DHT22;27636;52.610;13.244;2024-03-17T09:27:45;9.30;94.90
41944;DHT22;27636;52.610;13.244;2024-03-17T09:32:49;10.40;95.30
41944;DHT22;27636;52.610;13.244;2024-03-17T09:37:51;12.70;87.80
41944;DHT22;27636;52.610;13.244;2024-03-17T09:42:56;13.60;82.10
41944;DHT22;27636;52.610;13.244;2024-03-17T09:47:59;13.50;79.50
41944;DHT22;27636;52.610;13.244;2024-03-17T09:53:02;13.60;81.70
41944;DHT22;27636;52.610;13.244;2024-03-17T09:58:08;12.60;81.40
41944;DHT22;27636;52.610;13.244;2024-03-17T10:03:41;13.00;81.10
41944;DHT22;27636;52.610;13.244;2024-03-17T10:08:46;11.90;83.50
41944;DHT22;27636;52.610;13.244;2024-03-17T10:14:01;11.20;86.10
41944;DHT22;27636;52.610;13.244;2024-03-17T10:19:08;10.90;86.30
41944;DHT22;27636;52.610;13.244;2024-03-17T10:24:13;10.80;86.80
41944;DHT22;27636;52.610;13.244;2024-03-17T10:29:22;10.40;87.90
41944;DHT22;27636;52.610;13.244;2024-03-17T10:34:27;10.00;90.20
41944;DHT22;27636;52.610;13.244;2024-03-17T10:39:33;9.60;89.40
41944;DHT22;27636;52.610;13.244;2024-03-17T10:44:39;9.70;90.00
41944;DHT22;27636;52.610;13.244;2024-03-17T10:49:43;10.60;89.00
41944;DHT22;27636;52.610;13.244;2024-03-17T10:54:47;12.30;84.70
41944;DHT22;27636;52.610;13.244;2024-03-17T10:59:52;11.60;84.30
41944;DHT22;27636;52.610;13.244;2024-03-17T11:04:57;12.30;79.60
41944;DHT22;27636;52.610;13.244;2024-03-17T11:10:00;12.70;79.60
41944;DHT22;27636;52.610;13.244;2024-03-17T11:15:37;11.90;81.20
41944;DHT22;27636;52.610;13.244;2024-03-17T11:20:55;12.20;74.60
41944;DHT22;27636;52.610;13.244;2024-03-17T11:25:59;11.60;77.80
41944;DHT22;27636;52.610;13.244;2024-03-17T11:31:38;11.60;80.70
41944;DHT22;27636;52.610;13.244;2024-03-17T11:36:44;11.10;82.10
41944;DHT22;27636;52.610;13.244;2024-03-17T11:41:47;10.90;82.60
41944;DHT22;27636;52.610;13.244;2024-03-17T11:46:53;10.90;84.50
41944;DHT22;27636;52.610;13.244;2024-03-17T11:51:58;10.90;80.40
41944;DHT22;27636;52.610;13.244;2024-03-17T11:57:07;11.10;80.20
41944;DHT22;27636;52.610;13.244;2024-03-17T12:02:17;11.30;75.40
41944;DHT22;27636;52.610;13.244;2024-03-17T12:07:21;11.10;80.20
41944;DHT22;27636;52.610;13.244;2024-03-17T12:12:26;10.60;81.00
41944;DHT22;27636;52.610;13.244;2024-03-17T12:17:39;12.50;74.20
41944;DHT22;27636;52.610;13.244;2024-03-17T12:22:41;13.20;67.80
41944;DHT22;27636;52.610;13.244;2024-03-17T12:27:45;13.30;70.60
41944;DHT22;27636;52.610;13.244;2024-03-17T12:32:50;14.50;70.20
41944;DHT22;27636;52.610;13.244;2024-03-17T12:37:54;14.00;68.90
41944;DHT22;27636;52.610;13.244;2024-03-17T12:42:59;12.90;73.80
41944;DHT22;27636;52.610;13.244;2024-03-17T12:48:08;12.10;72.50
41944;DHT22;27636;52.610;13.244;2024-03-17T12:53:16;12.90;75.90
41944;DHT22;27636;52.610;13.244;2024-03-17T12:58:21;15.30;67.50
41944;DHT22;27636;52.610;13.244;2024-03-17T13:03:45;14.30;65.70
41944;DHT22;27636;52.610;13.244;2024-03-17T13:08:47;12.70;71.70
41944;DHT22;27636;52.610;13.244;2024-03-17T13:13:51;12.10;74.90
41944;DHT22;27636;52.610;13.244;2024-03-17T13:18:56;12.60;76.50
41944;DHT22;27636;52.610;13.244;2024-03-17T13:23:59;13.90;68.20
41944;DHT22;27636;52.610;13.244;2024-03-17T13:29:02;12.90;72.80
41944;DHT22;27636;52.610;13.244;2024-03-17T13:34:06;12.90;73.80
41944;DHT22;27636;52.610;13.244;2024-03-17T13:39:11;13.00;68.50
41944;DHT22;27636;52.610;13.244;2024-03-17T13:44:14;14.30;69.20
41944;DHT22;27636;52.610;13.244;2024-03-17T13:49:18;13.90;67.30
41944;DHT22;27636;52.610;13.244;2024-03-17T13:54:21;12.80;70.20
41944;DHT22;27636;52.610;13.244;2024-03-17T13:59:24;13.20;69.90
41944;DHT22;27636;52.610;13.244;2024-03-17T14:04:31;12.20;73.20
41944;DHT22;27636;52.610;13.244;2024-03-17T14:09:34;12.80;73.80
41944;DHT22;27636;52.610;13.244;2024-03-17T14:14:37;12.80;69.50
41944;DHT22;27636;52.610;13.244;2024-03-17T14:19:41;13.20;66.60
41944;DHT22;27636;52.610;13.244;2024-03-17T14:24:44;13.20;69.20
41944;DHT22;27636;52.610;13.244;2024-03-17T14:29:47;13.30;66.80
41944;DHT22;27636;52.610;13.244;2024-03-17T14:34:51;13.40;69.80
41944;DHT22;27636;52.610;13.244;2024-03-17T14:39:55;13.70;65.80
41944;DHT22;27636;52.610;13.244;2024-03-17T14:44:58;12.90;66.00
41944;DHT22;27636;52.610;13.244;2024-03-17T14:50:04;12.20;66.80
41944;DHT22;27636;52.610;13.244;2024-03-17T14:55:08;11.90;69.40
41944;DHT22;27636;52.610;13.244;2024-03-17T15:00:14;11.40;70.00
41944;DHT22;27636;52.610;13.244;2024-03-17T15:05:23;11.40;70.50
41944;DHT22;27636;52.610;13.244;2024-03-17T15:10:28;11.50;73.20
41944;DHT22;27636;52.610;13.244;2024-03-17T15:15:31;11.80;74.10
41944;DHT22;27636;52.610;13.244;2024-03-17T15:20:36;11.90;69.80
41944;DHT22;27636;52.610;13.244;2024-03-17T15:25:39;12.00;70.00
41944;DHT22;27636;52.610;13.244;2024-03-17T15:30:42;12.50;68.90
41944;DHT22;27636;52.610;13.244;2024-03-17T15:35:46;12.40;68.10
41944;DHT22;27636;52.610;13.244;2024-03-17T15:40:49;12.30;69.20
41944;DHT22;27636;52.610;13.244;2024-03-17T15:45:52;13.10;69.10
41944;DHT22;27636;52.610;13.244;2024-03-17T15:50:58;13.00;69.80
41944;DHT22;27636;52.610;13.244;2024-03-17T15:56:02;12.50;69.50
41944;DHT22;27636;52.610;13.244;2024-03-17T16:01:05;11.10;74.50
41944;DHT22;27636;52.610;13.244;2024-03-17T16:06:11;10.30;76.70
41944;DHT22;27636;52.610;13.244;2024-03-17T16:11:16;10.10;77.10
41944;DHT22;27636;52.610;13.244;2024-03-17T16:16:19;9.50;79.90
41944;DHT22;27636;52.610;13.244;2024-03-17T16:21:25;8.90;81.80
41944;DHT22;27636;52.610;13.244;2024-03-17T16:26:30;8.60;83.10
41944;DHT22;27636;52.610;13.244;2024-03-17T16:31:33;8.00;85.50
41944;DHT22;27636;52.610;13.244;2024-03-17T16:36:37;7.90;86.60
41944;DHT22;27636;52.610;13.244;2024-03-17T16:41:43;7.80;88.00
41944;DHT22;27636;52.610;13.244;2024-03-17T16:47:12;7.40;90.00
41944;DHT22;27636;52.610;13.244;2024-03-17T16:52:20;7.20;90.50
41944;DHT22;27636;52.610;13.244;2024-03-17T16:57:23;6.80;91.10
41944;DHT22;27636;52.610;13.244;2024-03-17T17:02:26;6.40;92.20
41944;DHT22;27636;52.610;13.244;2024-03-17T17:07:30;6.00;93.80
41944;DHT22;27636;52.610;13.244;2024-03-17T17:12:34;5.70;94.20
41944;DHT22;27636;52.610;13.244;2024-03-17T17:17:37;6.00;93.80
41944;DHT22;27636;52.610;13.244;2024-03-17T17:22:41;5.90;93.90
41944;DHT22;27636;52.610;13.244;2024-03-17T17:27:44;5.80;94.10
41944;DHT22;27636;52.610;13.244;2024-03-17T17:32:48;5.60;94.50
41944;DHT22;27636;52.610;13.244;2024-03-17T17:37:52;5.20;96.50
41944;DHT22;27636;52.610;13.244;2024-03-17T17:42:55;4.80;98.30
41944;DHT22;27636;52.610;13.244;2024-03-17T17:47:58;4.60;99.30
41944;DHT22;27636;52.610;13.244;2024-03-17T17:53:02;4.40;99.40
41944;DHT22;27636;52.610;13.244;2024-03-17T17:58:04;4.00;99.90
41944;DHT22;27636;52.610;13.244;2024-03-17T18:03:07;3.70;99.90
41944;DHT22;27636;52.610;13.244;2024-03-17T18:08:12;3.50;99.90
41944;DHT22;27636;52.610;13.244;2024-03-17T18:13:15;3.30;99.90
41944;DHT22;27636;52.610;13.244;2024-03-17T18:18:18;3.10;99.90
41944;DHT22;27636;52.610;13.244;2024-03-17T18:23:23;3.10;99.90
41944;DHT22;27636;52.610;13.244;2024-03-17T18:28:26;3.00;99.90
41944;DHT22;27636;52.610;13.244;2024-03-17T18:33:30;2.90;99.90
41944;DHT22;27636;52.610;13.244;2024-03-17T18:38:34;2.70;99.90
41944;DHT22;27636;52.610;13.244;2024-03-17T18:43:37;2.60;99.90
41944;DHT22;27636;52.610;13.244;2024-03-17T18:48:41;2.50;99.90
41944;DHT22;27636;52.610;13.244;2024-03-17T18:53:46;2.40;99.90
41944;DHT22;27636;52.610;13.244;2024-03-17T18:58:54;3.00;99.90
41944;DHT22;27636;52.610;13.244;2024-03-17T19:03:57;3.10;99.90
41944;DHT22;27636;52.610;13.244;2024-03-17T19:09:02;3.20;99.90
41944;DHT22;27636;52.610;13.244;2024-03-17T19:14:10;3.10;99.90
41944;DHT22;27636;52.610;13.244;2024-03-17T19:19:14;3.50;99.90
41944;DHT22;27636;52.610;13.244;2024-03-17T19:24:18;3.30;99.90
41944;DHT22;27636;52.610;13.244;2024-03-17T19:29:21;3.40;99.90
41944;DHT22;27636;52.610;13.244;2024-03-17T19:34:23;3.40;99.90
41944;DHT22;27636;52.610;13.244;2024-03-17T19:39:29;3.60;99.90
41944;DHT22;27636;52.610;13.244;2024-03-17T19:44:33;3.80;99.90
41944;DHT22;27636;52.610;13.244;2024-03-17T19:49:36;3.80;99.90
41944;DHT22;27636;52.610;13.244;2024-03-17T19:54:40;3.80;99.90
41944;DHT22;27636;52.610;13.244;2024-03-17T19:59:42;3.70;99.90
41944;DHT22;27636;52.610;13.244;2024-03-17T20:04:47;3.50;99.90
41944;DHT22;27636;52.610;13.244;2024-03-17T20:09:51;3.50;99.90
41944;DHT22;27636;52.610;13.244;2024-03-17T20:14:55;3.40;99.90
41944;DHT22;27636;52.610;13.244;2024-03-17T20:19:57;3.20;99.90
41944;DHT22;27636;52.610;13.244;2024-03-17T20:25:01;3.10;99.90
41944;DHT22;27636;52.610;13.244;2024-03-17T20:30:06;3.20;99.90
41944;DHT22;27636;52.610;13.244;2024-03-17T20:35:10;3.10;99.90
41944;DHT22;27636;52.610;13.244;2024-03-17T20:40:15;3.00;99.90
41944;DHT22;27636;52.610;13.244;2024-03-17T20:45:20;3.10;99.90
41944;DHT22;27636;52.610;13.244;2024-03-17T20:50:26;3.00;99.90
41944;DHT22;27636;52.610;13.244;2024-03-17T20:55:31;3.10;99.90
41944;DHT22;27636;52.610;13.244;2024-03-17T21:00:33;3.00;99.90
41944;DHT22;27636;52.610;13.244;2024-03-17T21:05:36;2.90;99.90
41944;DHT22;27636;52.610;13.244;2024-03-17T21:10:40;2.80;99.90
41944;DHT22;27636;52.610;13.244;2024-03-17T21:15:44;2.70;99.90
41944;DHT22;27636;52.610;13.244;2024-03-17T21:20:49;2.40;99.90
41944;DHT22;27636;52.610;13.244;2024-03-17T21:25:54;2.30;99.90
41944;DHT22;27636;52.610;13.244;2024-03-17T21:31:00;2.20;99.90
41944;DHT22;27636;52.610;13.244;2024-03-17T21:36:04;2.10;99.90
41944;DHT22;27636;52.610;13.244;2024-03-17T21:41:10;2.20;99.90
41944;DHT22;27636;52.610;13.244;2024-03-17T21:46:16;2.20;99.90
41944;DHT22;27636;52.610;13.244;2024-03-17T21:51:19;2.00;99.90
41944;DHT22;27636;52.610;13.244;2024-03-17T21:56:24;1.90;99.90
41944;DHT22;27636;52.610;13.244;2024-03-17T22:01:26;1.80;99.90
41944;DHT22;27636;52.610;13.244;2024-03-17T22:06:29;1.70;99.90
41944;DHT22;27636;52.610;13.244;2024-03-17T22:11:34;1.70;99.90
41944;DHT22;27636;52.610;13.244;2024-03-17T22:16:37;1.70;99.90
41944;DHT22;27636;52.610;13.244;2024-03-17T22:21:43;1.60;99.90
41944;DHT22;27636;52.610;13.244;2024-03-17T22:26:47;1.40;99.90
41944;DHT22;27636;52.610;13.244;2024-03-17T22:31:50;1.40;99.90
41944;DHT22;27636;52.610;13.244;2024-03-17T22:36:53;1.30;99.90
41944;DHT22;27636;52.610;13.244;2024-03-17T22:41:57;1.20;99.90
41944;DHT22;27636;52.610;13.244;2024-03-17T22:47:01;1.00;99.90
41944;DHT22;27636;52.610;13.244;2024-03-17T22:52:05;0.90;99.90
41944;DHT22;27636;52.610;13.244;2024-03-17T22:57:10;0.70;99.90
41944;DHT22;27636;52.610;13.244;2024-03-17T23:02:12;0.50;99.90
41944;DHT22;27636;52.610;13.244;2024-03-17T23:07:15;0.40;99.90
41944;DHT22;27636;52.610;13.244;2024-03-17T23:12:19;0.40;99.90
41944;DHT22;27636;52.610;13.244;2024-03-17T23:17:22;0.50;99.90
41944;DHT22;27636;52.610;13.244;2024-03-17T23:22:28;0.20;99.90
41944;DHT22;27636;52.610;13.244;2024-03-17T23:27:33;0.20;99.90
41944;DHT22;27636;52.610;13.244;2024-03-17T23:32:36;0.20;99.90
41944;DHT22;27636;52.610;13.244;2024-03-17T23:37:39;0.00;99.90
41944;DHT22;27636;52.610;13.244;2024-03-17T23:42:43;-0.10;99.90
41944;DHT22;27636;52.610;13.244;2024-03-17T23:47:46;-0.30;99.90
41944;DHT22;27636;52.610;13.244;2024-03-17T23:52:49;-0.30;99.90
41944;DHT22;27636;52.610;13.244;2024-03-17T23:57:53;-0.50;99.90
